createdAt,value
2017-12-15T00:00:32.283Z,2.2
2017-12-15T00:01:36.698Z,2.2
2017-12-15T00:02:42.028Z,2.2
2017-12-15T00:03:48.185Z,2.2
2017-12-15T00:04:54.833Z,2.2
2017-12-15T00:05:59.414Z,2.2
2017-12-15T00:07:03.765Z,2.2
2017-12-15T00:08:11.911Z,2.2
2017-12-15T00:09:16.514Z,2.2
2017-12-15T00:10:22.849Z,2.3
2017-12-15T00:11:28.496Z,2.3
2017-12-15T00:12:33.781Z,2.3
2017-12-15T00:13:37.947Z,2.3
2017-12-15T00:14:43.552Z,2.3
2017-12-15T00:15:47.592Z,2.3
2017-12-15T00:16:51.836Z,2.3
2017-12-15T00:17:58.457Z,2.3
2017-12-15T00:19:05.588Z,2.3
2017-12-15T00:20:09.491Z,2.3
2017-12-15T00:21:13.374Z,2.3
2017-12-15T00:22:19.845Z,2.3
2017-12-15T00:23:23.242Z,2.5
2017-12-15T00:24:29.368Z,2.4
2017-12-15T00:25:37.784Z,2.4
2017-12-15T00:26:41.805Z,2.4
2017-12-15T00:27:45.773Z,2.4
2017-12-15T00:28:48.880Z,2.4
2017-12-15T00:29:56.121Z,2.4
2017-12-15T00:30:59.974Z,2.3
2017-12-15T00:32:03.440Z,2.3
2017-12-15T00:33:07.423Z,2.3
2017-12-15T00:34:10.827Z,2.3
2017-12-15T00:35:13.945Z,2.3
2017-12-15T00:36:17.340Z,2.3
2017-12-15T00:37:22.844Z,2.3
2017-12-15T00:38:28.546Z,2.3
2017-12-15T00:39:33.273Z,2.3
2017-12-15T00:40:40.775Z,2.3
2017-12-15T00:41:44.384Z,2.2
2017-12-15T00:42:47.835Z,2.2
2017-12-15T00:43:52.366Z,2.1
2017-12-15T00:44:56.076Z,2.1
2017-12-15T00:45:59.472Z,2
2017-12-15T00:47:03.671Z,2.1
2017-12-15T00:48:07.792Z,2.1
2017-12-15T00:49:11.317Z,2.1
2017-12-15T00:50:14.826Z,2.1
2017-12-15T00:51:24.101Z,2.1
2017-12-15T00:52:28.290Z,2
2017-12-15T00:53:32.347Z,2.1
2017-12-15T00:54:35.857Z,2.1
2017-12-15T00:55:39.299Z,2.2
2017-12-15T00:56:43.292Z,2.2
2017-12-15T00:57:48.456Z,2.2
2017-12-15T00:58:52.648Z,2.2
2017-12-15T00:59:56.746Z,2.2
2017-12-15T01:01:00.719Z,2.2
2017-12-15T01:02:08.372Z,2.2
2017-12-15T01:03:11.823Z,2.2
2017-12-15T01:04:16.418Z,2.2
2017-12-15T01:05:23.132Z,2.3
2017-12-15T01:06:30.759Z,2.2
2017-12-15T01:07:35.669Z,2.2
2017-12-15T01:08:41.738Z,2.3
2017-12-15T01:09:45.478Z,2.3
2017-12-15T01:10:50.309Z,2.2
2017-12-15T01:11:58.144Z,2.2
2017-12-15T01:13:08.025Z,2.1
2017-12-15T01:14:14.065Z,2.1
2017-12-15T01:15:19.266Z,2.2
2017-12-15T01:16:23.684Z,2.3
2017-12-15T01:17:29.042Z,2.3
2017-12-15T01:18:35.356Z,2.3
2017-12-15T01:19:40.303Z,2.3
2017-12-15T01:20:47.274Z,2.3
2017-12-15T01:21:55.317Z,2.3
2017-12-15T01:22:59.536Z,2.3
2017-12-15T01:24:11.307Z,2.3
2017-12-15T01:25:17.021Z,2.3
2017-12-15T01:26:22.535Z,2.3
2017-12-15T01:27:27.223Z,2.4
2017-12-15T01:28:30.552Z,2.4
2017-12-15T01:29:35.556Z,2.4
2017-12-15T01:30:43.827Z,2.4
2017-12-15T01:31:48.301Z,2.4
2017-12-15T01:32:54.506Z,2.4
2017-12-15T01:33:59.297Z,2.4
2017-12-15T01:35:07.423Z,2.4
2017-12-15T01:36:10.770Z,2.3
2017-12-15T01:37:14.166Z,2.3
2017-12-15T01:38:17.550Z,2.3
2017-12-15T01:39:20.968Z,2.4
2017-12-15T01:40:24.370Z,2.4
2017-12-15T01:41:27.825Z,2.4
2017-12-15T01:42:31.365Z,2.4
2017-12-15T01:43:34.847Z,2.4
2017-12-15T01:44:38.133Z,2.4
2017-12-15T01:45:45.032Z,2.4
2017-12-15T01:46:49.812Z,2.4
2017-12-15T01:47:53.854Z,2.4
2017-12-15T01:48:57.411Z,2.4
2017-12-15T01:50:00.873Z,2.4
2017-12-15T01:51:05.447Z,2.4
2017-12-15T01:52:09.824Z,2.4
2017-12-15T01:53:13.136Z,2.4
2017-12-15T01:54:17.366Z,2.4
2017-12-15T01:55:20.906Z,2.4
2017-12-15T01:56:27.850Z,2.4
2017-12-15T01:57:31.271Z,2.4
2017-12-15T01:58:35.260Z,2.4
2017-12-15T01:59:39.401Z,2.4
2017-12-15T02:00:42.833Z,2.4
2017-12-15T02:01:46.012Z,2.4
2017-12-15T02:02:49.333Z,2.4
2017-12-15T02:03:53.196Z,2.4
2017-12-15T02:04:56.630Z,2.4
2017-12-15T02:05:59.972Z,2.3
2017-12-15T02:07:07.595Z,2.3
2017-12-15T02:08:12.272Z,2.3
2017-12-15T02:09:15.659Z,2.2
2017-12-15T02:10:19.337Z,2.2
2017-12-15T02:11:22.819Z,2.1
2017-12-15T02:12:27.007Z,2.2
2017-12-15T02:13:30.571Z,2.2
2017-12-15T02:14:34.983Z,2.2
2017-12-15T02:15:38.339Z,2.3
2017-12-15T02:16:41.676Z,2.2
2017-12-15T02:17:47.529Z,2.1
2017-12-15T02:18:50.828Z,2.2
2017-12-15T02:19:54.319Z,2.1
2017-12-15T02:20:57.829Z,2.1
2017-12-15T02:22:02.469Z,2.1
2017-12-15T02:23:05.877Z,2.1
2017-12-15T02:24:09.545Z,2.1
2017-12-15T02:25:13.712Z,2.1
2017-12-15T02:26:17.365Z,2.1
2017-12-15T02:27:20.914Z,2.1
2017-12-15T02:28:27.780Z,2
2017-12-15T02:29:31.048Z,2.1
2017-12-15T02:30:34.520Z,2
2017-12-15T02:31:38.756Z,2
2017-12-15T02:32:42.115Z,2
2017-12-15T02:33:45.455Z,2
2017-12-15T02:34:48.797Z,2
2017-12-15T02:35:52.208Z,2
2017-12-15T02:36:57.923Z,2
2017-12-15T02:38:01.418Z,2
2017-12-15T02:39:08.962Z,2
2017-12-15T02:40:12.377Z,2
2017-12-15T02:41:15.619Z,2
2017-12-15T02:42:18.962Z,2.1
2017-12-15T02:43:22.367Z,2
2017-12-15T02:44:25.774Z,2.1
2017-12-15T02:45:30.101Z,2.1
2017-12-15T02:46:34.111Z,2
2017-12-15T02:47:37.875Z,2.1
2017-12-15T02:48:43.365Z,2.2
2017-12-15T02:49:53.115Z,2.1
2017-12-15T02:50:59.010Z,2.1
2017-12-15T02:52:04.261Z,2.1
2017-12-15T02:53:08.097Z,2.1
2017-12-15T02:54:13.073Z,2.1
2017-12-15T02:55:17.878Z,2.1
2017-12-15T02:56:23.469Z,2.1
2017-12-15T02:57:29.429Z,2.1
2017-12-15T02:58:34.370Z,2
2017-12-15T02:59:37.800Z,2
2017-12-15T03:00:47.674Z,2
2017-12-15T03:01:51.087Z,2
2017-12-15T03:02:54.287Z,2
2017-12-15T03:03:58.266Z,1.9
2017-12-15T03:05:02.559Z,2
2017-12-15T03:06:06.310Z,2
2017-12-15T03:07:09.593Z,2
2017-12-15T03:08:13.016Z,2
2017-12-15T03:09:16.941Z,2.1
2017-12-15T03:10:21.183Z,2
2017-12-15T03:11:29.968Z,2
2017-12-15T03:12:33.688Z,2
2017-12-15T03:13:37.425Z,2
2017-12-15T03:14:41.432Z,2
2017-12-15T03:15:46.048Z,2
2017-12-15T03:16:49.472Z,2
2017-12-15T03:17:54.173Z,2.1
2017-12-15T03:18:57.481Z,2
2017-12-15T03:20:01.231Z,2.1
2017-12-15T03:21:05.755Z,2.1
2017-12-15T03:22:12.575Z,2.1
2017-12-15T03:23:16.620Z,2.1
2017-12-15T03:24:20.683Z,2.2
2017-12-15T03:25:24.745Z,2.2
2017-12-15T03:26:28.765Z,2.2
2017-12-15T03:27:32.104Z,2.2
2017-12-15T03:28:37.714Z,2.2
2017-12-15T03:29:42.651Z,2.2
2017-12-15T03:30:46.054Z,2.2
2017-12-15T03:31:49.576Z,2.2
2017-12-15T03:32:56.206Z,2.2
2017-12-15T03:33:59.573Z,2.2
2017-12-15T03:35:03.029Z,2.3
2017-12-15T03:36:06.992Z,2.3
2017-12-15T03:37:10.481Z,2.3
2017-12-15T03:38:13.984Z,2.3
2017-12-15T03:39:18.574Z,2.3
2017-12-15T03:40:21.880Z,2.3
2017-12-15T03:41:26.359Z,2.3
2017-12-15T03:42:32.856Z,2.3
2017-12-15T03:43:39.972Z,2.2
2017-12-15T03:44:43.389Z,2.2
2017-12-15T03:45:46.697Z,2.3
2017-12-15T03:46:51.518Z,2.3
2017-12-15T03:47:55.480Z,2.3
2017-12-15T03:49:00.334Z,2.3
2017-12-15T03:50:03.689Z,2.3
2017-12-15T03:51:09.595Z,2.3
2017-12-15T03:52:14.989Z,2.4
2017-12-15T03:53:19.927Z,2.3
2017-12-15T03:54:31.401Z,2.3
2017-12-15T03:55:37.196Z,2.3
2017-12-15T03:56:45.014Z,2.3
2017-12-15T03:57:50.168Z,2.4
2017-12-15T03:58:55.577Z,2.4
2017-12-15T04:00:02.894Z,2.3
2017-12-15T04:01:08.194Z,2.3
2017-12-15T04:02:12.192Z,2.3
2017-12-15T04:03:15.656Z,2.3
2017-12-15T04:04:22.778Z,2.3
2017-12-15T04:05:31.258Z,2.3
2017-12-15T04:06:35.884Z,2.3
2017-12-15T04:07:41.637Z,2.3
2017-12-15T04:08:46.815Z,2.3
2017-12-15T04:09:52.792Z,2.2
2017-12-15T04:11:00.060Z,2.4
2017-12-15T04:12:06.667Z,2.3
2017-12-15T04:13:11.910Z,2.3
2017-12-15T04:14:18.203Z,2.3
2017-12-15T04:15:22.241Z,2.2
2017-12-15T04:16:33.659Z,2.3
2017-12-15T04:17:41.634Z,2.3
2017-12-15T04:18:45.792Z,2.3
2017-12-15T04:19:51.310Z,2.2
2017-12-15T04:20:57.679Z,2.2
2017-12-15T04:22:03.957Z,2.3
2017-12-15T04:23:07.380Z,2.3
2017-12-15T04:24:12.507Z,2.2
2017-12-15T04:25:15.927Z,2.2
2017-12-15T04:26:19.254Z,2.1
2017-12-15T04:27:26.656Z,2.2
2017-12-15T04:28:30.716Z,2.2
2017-12-15T04:29:35.097Z,2.2
2017-12-15T04:30:38.500Z,2.1
2017-12-15T04:31:42.474Z,2.2
2017-12-15T04:32:45.924Z,2.2
2017-12-15T04:33:49.253Z,2.2
2017-12-15T04:34:52.874Z,2.2
2017-12-15T04:35:56.591Z,2.2
2017-12-15T04:37:00.041Z,2.2
2017-12-15T04:38:07.949Z,2.2
2017-12-15T04:39:11.357Z,2.2
2017-12-15T04:40:14.900Z,2.2
2017-12-15T04:41:18.665Z,2.2
2017-12-15T04:42:23.562Z,2.2
2017-12-15T04:43:26.644Z,2.1
2017-12-15T04:44:30.126Z,2.1
2017-12-15T04:45:34.192Z,2.1
2017-12-15T04:46:37.841Z,2.1
2017-12-15T04:47:41.462Z,2.1
2017-12-15T04:48:50.174Z,2
2017-12-15T04:49:54.099Z,2.1
2017-12-15T04:50:57.622Z,2.1
2017-12-15T04:52:01.028Z,2.2
2017-12-15T04:53:04.608Z,2.2
2017-12-15T04:54:08.711Z,2.1
2017-12-15T04:55:12.122Z,2.1
2017-12-15T04:56:17.214Z,2.2
2017-12-15T04:57:21.992Z,2.2
2017-12-15T04:58:26.022Z,2.2
2017-12-15T04:59:33.652Z,2.3
2017-12-15T05:00:37.808Z,2.2
2017-12-15T05:01:41.226Z,2.2
2017-12-15T05:02:45.956Z,2.2
2017-12-15T05:03:49.443Z,2.2
2017-12-15T05:04:54.549Z,2.2
2017-12-15T05:05:58.511Z,2.2
2017-12-15T05:07:01.935Z,2.2
2017-12-15T05:08:09.868Z,2.2
2017-12-15T05:09:17.659Z,2.2
2017-12-15T05:10:26.051Z,2.2
2017-12-15T05:11:31.765Z,2.2
2017-12-15T05:12:35.271Z,2.2
2017-12-15T05:13:42.880Z,2.2
2017-12-15T05:14:47.546Z,2.2
2017-12-15T05:15:52.291Z,2.2
2017-12-15T05:16:55.860Z,2.2
2017-12-15T05:17:59.745Z,2.3
2017-12-15T05:19:06.514Z,2.3
2017-12-15T05:20:12.916Z,2.2
2017-12-15T05:21:25.756Z,2.2
2017-12-15T05:22:29.851Z,2.3
2017-12-15T05:23:36.079Z,2.3
2017-12-15T05:24:46.483Z,2.3
2017-12-15T05:25:53.712Z,2.4
2017-12-15T05:26:59.299Z,2.4
2017-12-15T05:28:06.913Z,2.4
2017-12-15T05:29:23.978Z,2.5
2017-12-15T05:30:45.784Z,2.5
2017-12-15T05:31:58.651Z,2.4
2017-12-15T05:33:13.236Z,2.4
2017-12-15T05:34:31.096Z,2.4
2017-12-15T05:35:42.800Z,2.3
2017-12-15T05:36:55.503Z,2.3
2017-12-15T05:38:02.101Z,2.3
2017-12-15T05:39:13.006Z,2.3
2017-12-15T05:40:25.134Z,2.3
2017-12-15T05:41:31.839Z,2.3
2017-12-15T05:42:44.365Z,2.3
2017-12-15T05:43:55.427Z,2.3
2017-12-15T05:45:10.952Z,2.3
2017-12-15T05:46:15.467Z,2.2
2017-12-15T05:47:25.940Z,2.3
2017-12-15T05:48:40.533Z,2.3
2017-12-15T05:49:51.195Z,2.4
2017-12-15T05:51:02.949Z,2.4
2017-12-15T05:52:12.422Z,2.3
2017-12-15T05:53:25.042Z,2.4
2017-12-15T05:54:37.628Z,2.4
2017-12-15T05:55:46.695Z,2.3
2017-12-15T05:57:02.863Z,2.3
2017-12-15T05:58:12.238Z,2.3
2017-12-15T05:59:19.891Z,2.4
2017-12-15T06:00:31.788Z,2.3
2017-12-15T06:01:37.860Z,2.3
2017-12-15T06:02:48.390Z,2.3
2017-12-15T06:03:57.589Z,2.4
2017-12-15T06:05:07.645Z,2.3
2017-12-15T06:06:17.192Z,2.3
2017-12-15T06:07:23.416Z,2.3
2017-12-15T06:08:36.024Z,2.3
2017-12-15T06:09:55.977Z,2.3
2017-12-15T06:10:59.823Z,2.3
2017-12-15T06:12:09.272Z,2.3
2017-12-15T06:13:16.335Z,2.3
2017-12-15T06:14:20.167Z,2.3
2017-12-15T06:15:27.493Z,2.3
2017-12-15T06:16:31.852Z,2.3
2017-12-15T06:17:38.093Z,2.3
2017-12-15T06:18:43.121Z,2.2
2017-12-15T06:19:53.573Z,2.2
2017-12-15T06:20:58.464Z,2.2
2017-12-15T06:22:07.849Z,2.2
2017-12-15T06:23:14.044Z,2.3
2017-12-15T06:24:17.351Z,2.3
2017-12-15T06:25:23.034Z,2.3
2017-12-15T06:26:29.644Z,2.3
2017-12-15T06:27:34.161Z,2.3
2017-12-15T06:28:38.354Z,2.3
2017-12-15T06:29:42.410Z,2.2
2017-12-15T06:30:49.838Z,2.3
2017-12-15T06:31:54.236Z,2.2
2017-12-15T06:32:59.853Z,2.2
2017-12-15T06:34:05.502Z,2.2
2017-12-15T06:35:09.152Z,2.2
2017-12-15T06:36:13.254Z,2.3
2017-12-15T06:37:17.430Z,2.2
2017-12-15T06:38:24.371Z,2.2
2017-12-15T06:39:27.908Z,2.2
2017-12-15T06:40:31.345Z,2.2
2017-12-15T06:41:39.425Z,2.2
2017-12-15T06:42:45.217Z,2.2
2017-12-15T06:43:49.402Z,2.2
2017-12-15T06:44:56.080Z,2.2
2017-12-15T06:45:59.511Z,2.2
2017-12-15T06:47:05.864Z,2.2
2017-12-15T06:48:09.318Z,2.1
2017-12-15T06:49:12.811Z,2.1
2017-12-15T06:50:18.935Z,2.2
2017-12-15T06:51:25.795Z,2.2
2017-12-15T06:52:34.186Z,2.2
2017-12-15T06:53:38.102Z,2.2
2017-12-15T06:54:42.734Z,2.1
2017-12-15T06:55:48.570Z,2.1
2017-12-15T06:56:53.944Z,2.1
2017-12-15T06:57:59.914Z,2.2
2017-12-15T06:59:03.411Z,2.2
2017-12-15T07:00:06.948Z,2.2
2017-12-15T07:01:11.670Z,2.2
2017-12-15T07:02:17.098Z,2.2
2017-12-15T07:03:25.110Z,2.2
2017-12-15T07:04:29.604Z,2.2
2017-12-15T07:05:35.244Z,2.1
2017-12-15T07:06:41.097Z,2.1
2017-12-15T07:07:46.295Z,2.1
2017-12-15T07:08:50.216Z,2.1
2017-12-15T07:09:53.499Z,2.1
2017-12-15T07:10:56.970Z,2.1
2017-12-15T07:12:00.430Z,2.1
2017-12-15T07:13:04.537Z,2.1
2017-12-15T07:14:11.286Z,2.1
2017-12-15T07:15:14.806Z,2.1
2017-12-15T07:16:19.006Z,2.1
2017-12-15T07:17:22.509Z,2
2017-12-15T07:18:26.216Z,2.1
2017-12-15T07:19:30.285Z,2.1
2017-12-15T07:20:33.746Z,2.1
2017-12-15T07:21:37.333Z,2.1
2017-12-15T07:22:40.756Z,2.1
2017-12-15T07:23:44.353Z,2
2017-12-15T07:24:50.769Z,2.1
2017-12-15T07:26:04.903Z,2.2
2017-12-15T07:27:10.776Z,2.2
2017-12-15T07:28:15.262Z,2.2
2017-12-15T07:29:19.848Z,2.2
2017-12-15T07:30:23.471Z,2.2
2017-12-15T07:31:28.508Z,2.2
2017-12-15T07:32:33.417Z,2.2
2017-12-15T07:33:40.271Z,2.2
2017-12-15T07:34:47.277Z,2.2
2017-12-15T07:36:07.694Z,2.2
2017-12-15T07:37:11.772Z,2.2
2017-12-15T07:38:16.091Z,2.2
2017-12-15T07:39:29.601Z,2.2
2017-12-15T07:40:33.074Z,2.1
2017-12-15T07:41:36.912Z,2.2
2017-12-15T07:42:40.423Z,2.2
2017-12-15T07:43:44.404Z,2.1
2017-12-15T07:44:48.435Z,2.2
2017-12-15T07:45:53.854Z,2.2
2017-12-15T07:47:01.008Z,2.2
2017-12-15T07:48:04.140Z,2.2
2017-12-15T07:49:08.230Z,2.2
2017-12-15T07:50:11.623Z,2.2
2017-12-15T07:51:15.294Z,2.2
2017-12-15T07:52:19.486Z,2.2
2017-12-15T07:53:22.626Z,2.2
2017-12-15T07:54:26.626Z,2.2
2017-12-15T07:55:30.316Z,2.2
2017-12-15T07:56:33.786Z,2.2
2017-12-15T07:57:42.743Z,2.2
2017-12-15T07:58:48.218Z,2.2
2017-12-15T07:59:51.618Z,2.2
2017-12-15T08:00:56.642Z,2.2
2017-12-15T08:02:02.353Z,2.2
2017-12-15T08:03:05.876Z,2.2
2017-12-15T08:04:10.984Z,2.2
2017-12-15T08:05:14.312Z,2.2
2017-12-15T08:06:18.493Z,2.2
2017-12-15T08:07:21.650Z,2.2
2017-12-15T08:08:28.446Z,2.2
2017-12-15T08:09:31.765Z,2.2
2017-12-15T08:10:35.199Z,2.1
2017-12-15T08:11:38.767Z,2.1
2017-12-15T08:12:42.852Z,2.1
2017-12-15T08:13:46.363Z,2.3
2017-12-15T08:14:49.756Z,2.2
2017-12-15T08:15:53.205Z,2.2
2017-12-15T08:16:56.866Z,2.3
2017-12-15T08:18:01.386Z,2.3
2017-12-15T08:19:09.454Z,2.3
2017-12-15T08:20:12.928Z,2.3
2017-12-15T08:21:16.006Z,2.3
2017-12-15T08:22:19.579Z,2.3
2017-12-15T08:23:23.007Z,2.4
2017-12-15T08:24:27.754Z,2.3
2017-12-15T08:25:33.357Z,2.3
2017-12-15T08:26:39.242Z,2
2017-12-15T08:27:43.165Z,2.1
2017-12-15T08:28:46.627Z,2.2
2017-12-15T08:29:55.037Z,2.1
2017-12-15T08:30:58.399Z,2.2
2017-12-15T08:32:01.830Z,2.2
2017-12-15T08:33:05.222Z,2.2
2017-12-15T08:34:08.706Z,2.2
2017-12-15T08:35:12.274Z,2.3
2017-12-15T08:36:18.535Z,2.2
2017-12-15T08:37:22.713Z,2.2
2017-12-15T08:38:26.265Z,2.1
2017-12-15T08:39:30.473Z,2.1
2017-12-15T08:40:40.725Z,2.1
2017-12-15T08:41:44.943Z,2.1
2017-12-15T08:42:49.325Z,2.1
2017-12-15T08:43:53.768Z,2.1
2017-12-15T08:44:57.328Z,2.1
2017-12-15T08:46:01.485Z,2.1
2017-12-15T08:47:05.058Z,2.2
2017-12-15T08:48:08.631Z,2.2
2017-12-15T08:49:12.199Z,2.2
2017-12-15T08:50:15.666Z,2.2
2017-12-15T08:51:22.492Z,2.1
2017-12-15T08:52:25.849Z,2.1
2017-12-15T08:53:32.588Z,2.1
2017-12-15T08:54:37.332Z,2.2
2017-12-15T08:55:41.644Z,2.1
2017-12-15T08:56:45.223Z,2.1
2017-12-15T08:57:48.686Z,2.1
2017-12-15T08:58:52.174Z,2.2
2017-12-15T08:59:55.588Z,2.2
2017-12-15T09:00:59.099Z,2.2
2017-12-15T09:02:09.055Z,2.2
2017-12-15T09:03:12.445Z,2.2
2017-12-15T09:04:15.703Z,2.2
2017-12-15T09:05:19.508Z,2.3
2017-12-15T09:06:23.657Z,2.3
2017-12-15T09:07:29.246Z,2.3
2017-12-15T09:08:38.534Z,2.3
2017-12-15T09:09:51.854Z,2.3
2017-12-15T09:10:55.368Z,2.2
2017-12-15T09:11:58.698Z,2.1
2017-12-15T09:13:05.887Z,2
2017-12-15T09:14:09.244Z,1.7
2017-12-15T09:15:15.095Z,1.7
2017-12-15T09:16:21.034Z,1.9
2017-12-15T09:17:25.189Z,2
2017-12-15T09:18:28.653Z,2.1
2017-12-15T09:19:32.048Z,2.1
2017-12-15T09:20:35.644Z,2.2
2017-12-15T09:21:39.096Z,2.2
2017-12-15T09:22:42.565Z,2.2
2017-12-15T09:23:49.741Z,2.2
2017-12-15T09:24:53.886Z,2.3
2017-12-15T09:25:57.404Z,2.4
2017-12-15T09:27:01.268Z,2.5
2017-12-15T09:28:04.823Z,2.7
2017-12-15T09:29:08.939Z,2.8
2017-12-15T09:30:12.645Z,2.8
2017-12-15T09:31:16.229Z,2.9
2017-12-15T09:32:20.067Z,2.8
2017-12-15T09:33:24.159Z,2.8
2017-12-15T09:34:31.169Z,2.8
2017-12-15T09:35:34.616Z,2.8
2017-12-15T09:36:38.203Z,2.8
2017-12-15T09:37:41.519Z,2.8
2017-12-15T09:38:44.981Z,2.8
2017-12-15T09:39:48.383Z,2.8
2017-12-15T09:40:52.771Z,2.7
2017-12-15T09:41:56.232Z,2.6
2017-12-15T09:43:01.340Z,2.6
2017-12-15T09:44:17.595Z,2.5
2017-12-15T09:45:25.287Z,2.6
2017-12-15T09:46:28.762Z,2.6
2017-12-15T09:47:32.411Z,2.7
2017-12-15T09:48:35.894Z,2.7
2017-12-15T09:49:40.007Z,2.8
2017-12-15T09:50:43.531Z,2.8
2017-12-15T09:51:48.630Z,2.8
2017-12-15T09:52:51.986Z,2.9
2017-12-15T09:53:55.530Z,2.9
2017-12-15T09:54:58.856Z,2.9
2017-12-15T09:56:06.417Z,2.9
2017-12-15T09:57:10.436Z,2.8
2017-12-15T09:58:13.958Z,2.8
2017-12-15T09:59:17.426Z,2.9
2017-12-15T10:00:21.689Z,2.8
2017-12-15T10:01:26.124Z,2.8
2017-12-15T10:02:30.720Z,2.8
2017-12-15T10:03:35.733Z,2.8
2017-12-15T10:04:39.255Z,2.8
2017-12-15T10:05:42.903Z,2.8
2017-12-15T10:06:50.000Z,2.7
2017-12-15T10:07:53.508Z,2.7
2017-12-15T10:09:04.141Z,2.7
2017-12-15T10:10:07.731Z,2.6
2017-12-15T10:11:23.330Z,2.7
2017-12-15T10:12:26.884Z,2.7
2017-12-15T10:13:31.264Z,2.6
2017-12-15T10:14:34.875Z,2.6
2017-12-15T10:15:38.698Z,2.5
2017-12-15T10:16:42.094Z,2.5
2017-12-15T10:17:50.280Z,2.5
2017-12-15T10:18:53.788Z,2.5
2017-12-15T10:19:57.182Z,2.4
2017-12-15T10:21:00.583Z,2.4
2017-12-15T10:22:04.064Z,2.4
2017-12-15T10:23:07.667Z,2.4
2017-12-15T10:24:10.992Z,2.5
2017-12-15T10:25:14.469Z,2.4
2017-12-15T10:26:17.970Z,2.4
2017-12-15T10:27:21.293Z,2.4
2017-12-15T10:28:28.629Z,2.3
2017-12-15T10:29:32.060Z,2.3
2017-12-15T10:30:35.421Z,2.2
2017-12-15T10:31:38.773Z,2.2
2017-12-15T10:32:42.959Z,2.1
2017-12-15T10:33:46.536Z,2.1
2017-12-15T10:34:49.872Z,2
2017-12-15T10:35:53.395Z,1.9
2017-12-15T10:36:57.103Z,2
2017-12-15T10:38:01.208Z,2
2017-12-15T10:39:08.188Z,2.1
2017-12-15T10:40:11.661Z,2.2
2017-12-15T10:41:15.069Z,2.2
2017-12-15T10:42:18.797Z,2.2
2017-12-15T10:43:22.279Z,2.2
2017-12-15T10:44:25.832Z,2.2
2017-12-15T10:45:29.272Z,2.2
2017-12-15T10:46:32.799Z,2.2
2017-12-15T10:47:36.746Z,2.2
2017-12-15T10:48:40.231Z,2.2
2017-12-15T10:49:46.130Z,2.2
2017-12-15T10:50:49.459Z,2.2
2017-12-15T10:51:52.869Z,2.2
2017-12-15T10:52:56.847Z,2.2
2017-12-15T10:54:00.870Z,2.2
2017-12-15T10:55:04.384Z,2.1
2017-12-15T10:56:07.836Z,2.2
2017-12-15T10:57:11.307Z,2.2
2017-12-15T10:58:15.033Z,2.2
2017-12-15T10:59:18.640Z,2.2
2017-12-15T11:00:27.170Z,2.2
2017-12-15T11:01:31.273Z,2.2
2017-12-15T11:02:34.791Z,2.2
2017-12-15T11:03:38.994Z,2.2
2017-12-15T11:04:42.122Z,2.2
2017-12-15T11:05:45.685Z,2.3
2017-12-15T11:06:49.228Z,2.3
2017-12-15T11:07:53.796Z,2.3
2017-12-15T11:08:57.443Z,2.3
2017-12-15T11:10:02.686Z,2.3
2017-12-15T11:11:10.286Z,2.3
2017-12-15T11:12:14.335Z,2.4
2017-12-15T11:13:18.626Z,2.4
2017-12-15T11:14:22.798Z,2.4
2017-12-15T11:15:26.306Z,2.4
2017-12-15T11:16:30.484Z,2.4
2017-12-15T11:17:34.104Z,2.5
2017-12-15T11:18:37.692Z,2.5
2017-12-15T11:19:41.283Z,2.5
2017-12-15T11:20:44.787Z,2.5
2017-12-15T11:21:52.575Z,2.6
2017-12-15T11:22:56.093Z,2.6
2017-12-15T11:23:59.592Z,2.6
2017-12-15T11:25:03.886Z,2.6
2017-12-15T11:26:07.244Z,2.7
2017-12-15T11:27:12.107Z,2.7
2017-12-15T11:28:15.626Z,2.8
2017-12-15T11:29:19.180Z,2.8
2017-12-15T11:30:22.557Z,2.8
2017-12-15T11:31:26.735Z,2.8
2017-12-15T11:32:33.575Z,2.9
2017-12-15T11:33:37.013Z,2.9
2017-12-15T11:34:40.437Z,3
2017-12-15T11:35:43.737Z,3
2017-12-15T11:36:47.794Z,3
2017-12-15T11:37:51.275Z,3
2017-12-15T11:38:54.733Z,3
2017-12-15T11:39:58.226Z,3
2017-12-15T11:41:01.683Z,3.1
2017-12-15T11:42:05.300Z,3
2017-12-15T11:43:12.222Z,3.1
2017-12-15T11:44:15.654Z,3.1
2017-12-15T11:45:18.849Z,3.1
2017-12-15T11:46:22.976Z,3.1
2017-12-15T11:47:26.571Z,3.1
2017-12-15T11:48:30.162Z,3.1
2017-12-15T11:49:33.441Z,3.2
2017-12-15T11:50:37.654Z,3.2
2017-12-15T11:51:41.154Z,3.1
2017-12-15T11:52:45.278Z,3.1
2017-12-15T11:53:52.136Z,3.1
2017-12-15T11:54:55.711Z,3.2
2017-12-15T11:55:59.133Z,3.2
2017-12-15T11:57:02.430Z,3.2
2017-12-15T11:58:05.940Z,3.3
2017-12-15T11:59:09.542Z,3.2
2017-12-15T12:00:12.912Z,3.2
2017-12-15T12:01:16.900Z,3.3
2017-12-15T12:02:20.529Z,3.3
2017-12-15T12:03:23.877Z,3.3
2017-12-15T12:04:31.552Z,3.3
2017-12-15T12:05:34.930Z,3.3
2017-12-15T12:06:38.530Z,3.3
2017-12-15T12:07:41.821Z,3.3
2017-12-15T12:08:45.111Z,3.3
2017-12-15T12:09:49.284Z,3.3
2017-12-15T12:10:52.820Z,3.3
2017-12-15T12:11:56.106Z,3.4
2017-12-15T12:12:59.673Z,3.4
2017-12-15T12:14:03.263Z,3.4
2017-12-15T12:15:10.490Z,3.4
2017-12-15T12:16:14.210Z,3.5
2017-12-15T12:17:17.645Z,3.5
2017-12-15T12:18:20.979Z,3.5
2017-12-15T12:19:24.459Z,3.5
2017-12-15T12:20:27.928Z,3.5
2017-12-15T12:21:31.452Z,3.5
2017-12-15T12:22:35.134Z,3.5
2017-12-15T12:23:38.504Z,3.5
2017-12-15T12:24:42.000Z,3.5
2017-12-15T12:25:49.258Z,3.5
2017-12-15T12:26:52.689Z,3.5
2017-12-15T12:27:56.880Z,3.5
2017-12-15T12:29:01.178Z,3.5
2017-12-15T12:30:05.869Z,3.5
2017-12-15T12:31:09.482Z,3.5
2017-12-15T12:32:15.930Z,3.5
2017-12-15T12:33:21.296Z,3.6
2017-12-15T12:34:26.764Z,3.5
2017-12-15T12:35:30.362Z,3.6
2017-12-15T12:36:38.249Z,3.5
2017-12-15T12:37:41.735Z,3.5
2017-12-15T12:38:45.808Z,3.5
2017-12-15T12:39:49.777Z,3.5
2017-12-15T12:40:53.743Z,3.5
2017-12-15T12:41:57.182Z,3.5
2017-12-15T12:43:00.438Z,3.5
2017-12-15T12:44:03.954Z,3.4
2017-12-15T12:45:07.520Z,3.4
2017-12-15T12:46:10.988Z,3.4
2017-12-15T12:47:18.612Z,3.5
2017-12-15T12:48:22.532Z,3.5
2017-12-15T12:49:25.958Z,3.5
2017-12-15T12:50:29.949Z,3.5
2017-12-15T12:51:34.393Z,3.4
2017-12-15T12:52:37.811Z,3.4
2017-12-15T12:53:41.313Z,3.4
2017-12-15T12:54:45.350Z,3.5
2017-12-15T12:55:49.356Z,3.5
2017-12-15T12:56:52.728Z,3.5
2017-12-15T12:58:00.478Z,3.5
2017-12-15T12:59:04.109Z,3.4
2017-12-15T13:00:07.669Z,3.5
2017-12-15T13:01:11.296Z,3.5
2017-12-15T13:02:14.666Z,3.4
2017-12-15T13:03:19.712Z,3.5
2017-12-15T13:04:23.370Z,3.5
2017-12-15T13:05:28.035Z,3.4
2017-12-15T13:06:31.537Z,3.5
2017-12-15T13:07:35.019Z,3.4
2017-12-15T13:08:43.232Z,3.5
2017-12-15T13:09:47.349Z,3.4
2017-12-15T13:10:50.796Z,3.5
2017-12-15T13:11:55.086Z,3.4
2017-12-15T13:12:59.372Z,3.4
2017-12-15T13:14:02.654Z,3.5
2017-12-15T13:15:06.208Z,3.5
2017-12-15T13:16:10.415Z,3.4
2017-12-15T13:17:13.783Z,3.4
2017-12-15T13:18:17.165Z,3.5
2017-12-15T13:19:24.891Z,3.5
2017-12-15T13:20:28.262Z,3.5
2017-12-15T13:21:31.804Z,3.5
2017-12-15T13:22:35.172Z,3.5
2017-12-15T13:23:38.600Z,3.5
2017-12-15T13:24:42.102Z,3.5
2017-12-15T13:25:45.543Z,3.5
2017-12-15T13:26:49.002Z,3.5
2017-12-15T13:27:52.603Z,3.5
2017-12-15T13:28:56.523Z,3.5
2017-12-15T13:30:03.586Z,3.5
2017-12-15T13:31:06.963Z,3.5
2017-12-15T13:32:11.368Z,3.5
2017-12-15T13:33:14.827Z,3.5
2017-12-15T13:34:18.360Z,3.5
2017-12-15T13:35:21.884Z,3.5
2017-12-15T13:36:25.263Z,3.4
2017-12-15T13:37:28.700Z,3.5
2017-12-15T13:38:32.088Z,3.5
2017-12-15T13:39:35.607Z,3.5
2017-12-15T13:40:42.557Z,3.5
2017-12-15T13:41:46.014Z,3.4
2017-12-15T13:42:49.506Z,3.4
2017-12-15T13:43:53.001Z,3.5
2017-12-15T13:44:56.488Z,3.5
2017-12-15T13:46:00.064Z,3.5
2017-12-15T13:47:04.183Z,3.5
2017-12-15T13:48:40.786Z,3.4
2017-12-15T13:50:25.302Z,3.4
2017-12-15T13:52:03.378Z,3.4
2017-12-15T13:54:19.483Z,3.5
2017-12-15T13:55:36.187Z,3.4
2017-12-15T13:56:39.707Z,3.3
2017-12-15T13:57:43.124Z,3.3
2017-12-15T13:58:47.303Z,3.3
2017-12-15T13:59:50.764Z,3.3
2017-12-15T14:00:54.169Z,3.3
2017-12-15T14:01:57.520Z,3.2
2017-12-15T14:03:00.754Z,3.1
2017-12-15T14:04:04.100Z,3.1
2017-12-15T14:05:11.617Z,3.2
2017-12-15T14:06:14.967Z,3.2
2017-12-15T14:07:18.423Z,3.2
2017-12-15T14:08:22.677Z,3.2
2017-12-15T14:09:26.193Z,3.2
2017-12-15T14:10:29.921Z,3.2
2017-12-15T14:11:33.438Z,3.2
2017-12-15T14:12:37.034Z,3.2
2017-12-15T14:13:40.718Z,3.3
2017-12-15T14:14:44.773Z,3.3
2017-12-15T14:15:51.724Z,3.3
2017-12-15T14:16:55.179Z,3.3
2017-12-15T14:17:59.165Z,3.3
2017-12-15T14:19:03.856Z,3.3
2017-12-15T14:20:07.401Z,3.3
2017-12-15T14:21:11.628Z,3.3
2017-12-15T14:22:15.193Z,3.2
2017-12-15T14:23:18.795Z,3.2
2017-12-15T14:24:22.866Z,3.2
2017-12-15T14:25:26.340Z,3.2
2017-12-15T14:26:33.420Z,3.2
2017-12-15T14:27:36.933Z,3.2
2017-12-15T14:28:41.192Z,3.2
2017-12-15T14:29:44.666Z,3.1
2017-12-15T14:30:50.154Z,3.1
2017-12-15T14:31:54.360Z,3.1
2017-12-15T14:32:58.319Z,3.1
2017-12-15T14:34:02.475Z,3.1
2017-12-15T14:35:05.791Z,3.1
2017-12-15T14:36:10.357Z,3.1
2017-12-15T14:37:17.762Z,3
2017-12-15T14:38:21.318Z,3
2017-12-15T14:39:25.486Z,3
2017-12-15T14:40:29.024Z,3.1
2017-12-15T14:41:32.432Z,3.1
2017-12-15T14:42:35.829Z,3
2017-12-15T14:43:39.134Z,3.1
2017-12-15T14:44:42.585Z,3
2017-12-15T14:45:46.687Z,3
2017-12-15T14:46:50.314Z,3
2017-12-15T14:48:00.011Z,3
2017-12-15T14:49:03.358Z,3.1
2017-12-15T14:50:08.274Z,2.9
2017-12-15T14:51:13.402Z,3
2017-12-15T14:52:19.254Z,2.9
2017-12-15T14:53:23.154Z,2.9
2017-12-15T14:54:26.607Z,2.8
2017-12-15T14:55:29.980Z,2.8
2017-12-15T14:56:34.224Z,2.8
2017-12-15T14:57:38.625Z,2.7
2017-12-15T14:58:45.737Z,2.7
2017-12-15T14:59:49.122Z,2.7
2017-12-15T15:00:52.596Z,2.7
2017-12-15T15:01:56.882Z,2.7